createdAt,value
2018-08-04T00:00:25.437Z,56.75
2018-08-04T00:01:25.458Z,56.65
2018-08-04T00:02:25.424Z,56.85
2018-08-04T00:03:25.406Z,56.55
2018-08-04T00:04:25.394Z,56.55
2018-08-04T00:05:25.384Z,56.85
2018-08-04T00:06:25.395Z,56.55
2018-08-04T00:07:25.361Z,56.45
2018-08-04T00:08:25.347Z,56.65
2018-08-04T00:09:25.353Z,56.55
2018-08-04T00:10:25.326Z,57.15
2018-08-04T00:11:25.334Z,56.55
2018-08-04T00:12:25.304Z,56.35
2018-08-04T00:13:25.292Z,56.48
2018-08-04T00:14:25.299Z,56.77
2018-08-04T00:15:25.271Z,56.27
2018-08-04T00:16:25.278Z,56.65
2018-08-04T00:17:25.245Z,56.38
2018-08-04T00:18:25.232Z,56.77
2018-08-04T00:19:25.221Z,56.87
2018-08-04T00:20:25.211Z,56.57
2018-08-04T00:21:25.219Z,56.57
2018-08-04T00:22:25.187Z,56.27
2018-08-04T00:23:25.174Z,56.98
2018-08-04T00:24:25.159Z,56.68
2018-08-04T00:25:25.150Z,56.85
2018-08-04T00:26:25.169Z,56.57
2018-08-04T00:27:25.126Z,56.27
2018-08-04T00:28:25.122Z,56.38
2018-08-04T00:29:25.100Z,56.38
2018-08-04T00:30:25.091Z,56.35
2018-08-04T00:31:25.102Z,56.35
2018-08-04T00:32:25.070Z,56.25
2018-08-04T00:33:25.056Z,56.55
2018-08-04T00:34:25.047Z,56.35
2018-08-04T00:35:25.033Z,56.45
2018-08-04T00:36:25.047Z,56.45
2018-08-04T00:37:25.018Z,56.45
2018-08-04T00:38:25.000Z,56.45
2018-08-04T00:39:24.992Z,56.27
2018-08-04T00:40:24.981Z,56.25
2018-08-04T00:41:24.991Z,56.38
2018-08-04T00:42:24.964Z,56.35
2018-08-04T00:43:24.938Z,56.27
2018-08-04T00:44:24.924Z,56.38
2018-08-04T00:45:24.923Z,56.08
2018-08-04T00:46:24.957Z,55.95
2018-08-04T00:47:24.897Z,55.95
2018-08-04T00:48:24.882Z,55.65
2018-08-04T00:49:24.881Z,55.76
2018-08-04T00:50:24.865Z,56.05
2018-08-04T00:51:24.870Z,55.85
2018-08-04T00:52:24.840Z,55.65
2018-08-04T00:53:24.827Z,55.55
2018-08-04T00:54:24.811Z,56.25
2018-08-04T00:55:24.809Z,55.55
2018-08-04T00:56:24.815Z,55.65
2018-08-04T00:57:24.784Z,55.55
2018-08-04T00:58:24.765Z,56.05
2018-08-04T00:59:24.763Z,55.95
2018-08-04T01:00:24.752Z,55.65
2018-08-04T01:01:24.753Z,55.65
2018-08-04T01:02:24.728Z,55.85
2018-08-04T01:03:24.707Z,55.35
2018-08-04T01:04:24.701Z,55.46
2018-08-04T01:05:24.685Z,55.35
2018-08-04T01:06:24.857Z,55.35
2018-08-04T01:07:24.664Z,55.16
2018-08-04T01:08:24.651Z,55.35
2018-08-04T01:09:24.644Z,55.55
2018-08-04T01:10:24.628Z,55.76
2018-08-04T01:11:24.644Z,55.55
2018-08-04T01:12:24.603Z,55.35
2018-08-04T01:13:24.597Z,55.65
2018-08-04T01:14:24.584Z,55.35
2018-08-04T01:15:24.572Z,56.08
2018-08-04T01:16:24.589Z,55.55
2018-08-04T01:17:24.552Z,55.16
2018-08-04T01:18:24.541Z,55.35
2018-08-04T01:19:24.524Z,55.38
2018-08-04T01:20:24.519Z,55.35
2018-08-04T01:21:24.529Z,55.18
2018-08-04T01:22:24.492Z,54.38
2018-08-04T01:23:24.481Z,55.18
2018-08-04T01:24:24.461Z,55.88
2018-08-04T01:25:24.461Z,55.78
2018-08-04T01:26:24.520Z,55.28
2018-08-04T01:27:24.432Z,55.28
2018-08-04T01:28:24.419Z,55.08
2018-08-04T01:29:24.408Z,55.38
2018-08-04T01:30:24.412Z,55.38
2018-08-04T01:31:24.408Z,55.41
2018-08-04T01:32:24.379Z,55.58
2018-08-04T01:33:24.359Z,56.10
2018-08-04T01:34:24.349Z,55.41
2018-08-04T01:35:24.335Z,55.51
2018-08-04T01:36:24.349Z,56.21
2018-08-04T01:37:24.321Z,55.71
2018-08-04T01:38:24.300Z,55.51
2018-08-04T01:39:24.299Z,55.51
2018-08-04T01:40:24.291Z,56.01
2018-08-04T01:41:24.299Z,55.71
2018-08-04T01:42:24.264Z,55.51
2018-08-04T01:43:24.245Z,55.51
2018-08-04T01:44:24.243Z,55.91
2018-08-04T01:45:24.228Z,56.13
2018-08-04T01:46:24.243Z,56.03
2018-08-04T01:47:24.199Z,55.83
2018-08-04T01:48:24.186Z,55.43
2018-08-04T01:49:24.188Z,55.73
2018-08-04T01:50:24.166Z,55.93
2018-08-04T01:51:24.178Z,55.63
2018-08-04T01:52:24.145Z,55.93
2018-08-04T01:53:24.136Z,55.83
2018-08-04T01:54:24.120Z,55.56
2018-08-04T01:55:24.113Z,55.86
2018-08-04T01:56:24.126Z,56.13
2018-08-04T01:57:24.088Z,55.96
2018-08-04T01:58:24.080Z,55.96
2018-08-04T01:59:24.065Z,56.23
2018-08-04T02:00:24.050Z,56.06
2018-08-04T02:01:24.071Z,56.16
2018-08-04T02:02:24.027Z,55.76
2018-08-04T02:03:24.029Z,55.86
2018-08-04T02:04:24.015Z,55.96
2018-08-04T02:05:23.995Z,56.06
2018-08-04T02:06:24.019Z,56.38
2018-08-04T02:07:24.105Z,56.38
2018-08-04T02:08:23.962Z,56.09
2018-08-04T02:09:23.959Z,56.09
2018-08-04T02:10:23.936Z,56.48
2018-08-04T02:11:23.957Z,56.38
2018-08-04T02:12:23.923Z,56.09
2018-08-04T02:13:23.904Z,56.38
2018-08-04T02:14:23.906Z,56.48
2018-08-04T02:15:23.880Z,56.48
2018-08-04T02:16:23.895Z,55.99
2018-08-04T02:17:23.864Z,56.29
2018-08-04T02:18:23.849Z,56.31
2018-08-04T02:19:23.842Z,56.51
2018-08-04T02:20:23.830Z,56.51
2018-08-04T02:21:23.838Z,56.41
2018-08-04T02:22:23.806Z,56.81
2018-08-04T02:23:23.794Z,56.94
2018-08-04T02:24:23.785Z,56.71
2018-08-04T02:25:23.769Z,56.81
2018-08-04T02:26:23.784Z,57.04
2018-08-04T02:27:23.754Z,56.44
2018-08-04T02:28:23.734Z,56.74
2018-08-04T02:29:23.721Z,57.04
2018-08-04T02:30:23.720Z,57.07
2018-08-04T02:31:23.722Z,56.74
2018-08-04T02:32:23.689Z,57.24
2018-08-04T02:33:23.681Z,56.84
2018-08-04T02:34:23.666Z,56.84
2018-08-04T02:35:23.658Z,56.96
2018-08-04T02:36:23.670Z,57.07
2018-08-04T02:37:23.635Z,56.87
2018-08-04T02:38:23.624Z,56.67
2018-08-04T02:39:23.615Z,56.96
2018-08-04T02:40:23.599Z,56.77
2018-08-04T02:41:23.613Z,56.57
2018-08-04T02:42:23.575Z,57.17
2018-08-04T02:43:23.562Z,57.07
2018-08-04T02:44:23.556Z,56.87
2018-08-04T02:45:23.548Z,56.89
2018-08-04T02:46:23.554Z,57.17
2018-08-04T02:47:23.524Z,57.50
2018-08-04T02:48:23.511Z,57.07
2018-08-04T02:49:23.497Z,56.79
2018-08-04T02:50:23.487Z,57.19
2018-08-04T02:51:23.497Z,57.39
2018-08-04T02:52:23.463Z,57.09
2018-08-04T02:53:23.453Z,57.17
2018-08-04T02:54:23.441Z,56.89
2018-08-04T02:55:23.434Z,57.09
2018-08-04T02:56:23.444Z,56.99
2018-08-04T02:57:23.405Z,56.89
2018-08-04T02:58:23.391Z,56.70
2018-08-04T02:59:23.383Z,57.39
2018-08-04T03:00:23.372Z,56.99
2018-08-04T03:01:23.382Z,56.99
2018-08-04T03:02:23.349Z,57.32
2018-08-04T03:03:23.346Z,57.62
2018-08-04T03:04:23.326Z,57.19
2018-08-04T03:05:23.324Z,57.59
2018-08-04T03:06:23.346Z,57.50
2018-08-04T03:07:23.289Z,57.42
2018-08-04T03:08:23.338Z,57.42
2018-08-04T03:09:23.269Z,57.50
2018-08-04T03:10:23.256Z,58.09
2018-08-04T03:11:23.252Z,57.72
2018-08-04T03:12:23.276Z,57.72
2018-08-04T03:13:23.219Z,58.05
2018-08-04T03:14:23.211Z,57.72
2018-08-04T03:15:23.205Z,57.62
2018-08-04T03:16:23.185Z,57.75
2018-08-04T03:17:23.180Z,58.45
2018-08-04T03:18:23.190Z,57.95
2018-08-04T03:19:23.159Z,57.55
2018-08-04T03:20:23.141Z,57.75
2018-08-04T03:21:23.136Z,57.72
2018-08-04T03:22:23.144Z,57.95
2018-08-04T03:23:23.141Z,57.65
2018-08-04T03:24:23.102Z,57.85
2018-08-04T03:25:23.086Z,58.15
2018-08-04T03:26:23.071Z,58.05
2018-08-04T03:27:23.062Z,58.75
2018-08-04T03:28:23.046Z,58.15
2018-08-04T03:29:23.077Z,58.45
2018-08-04T03:30:23.036Z,58.25
2018-08-04T03:31:23.021Z,58.45
2018-08-04T03:32:23.011Z,58.55
2018-08-04T03:33:22.989Z,58.68
2018-08-04T03:34:22.979Z,58.28
2018-08-04T03:35:22.987Z,58.35
2018-08-04T03:36:22.962Z,59.08
2018-08-04T03:37:22.954Z,58.87
2018-08-04T03:38:22.930Z,59.08
2018-08-04T03:39:22.924Z,58.87
2018-08-04T03:40:22.937Z,59.48
2018-08-04T03:41:22.903Z,59.28
2018-08-04T03:42:22.890Z,59.28
2018-08-04T03:43:22.876Z,59.08
2018-08-04T03:44:22.862Z,59.38
2018-08-04T03:45:22.847Z,59.08
2018-08-04T03:46:22.872Z,59.28
2018-08-04T03:47:22.831Z,59.38
2018-08-04T03:48:22.827Z,59.18
2018-08-04T03:49:22.804Z,59.38
2018-08-04T03:50:22.794Z,59.08
2018-08-04T03:51:22.785Z,59.28
2018-08-04T03:52:22.801Z,59.28
2018-08-04T03:53:22.766Z,59.28
2018-08-04T03:54:22.741Z,59.48
2018-08-04T03:55:22.738Z,59.18
2018-08-04T03:56:22.727Z,59.18
2018-08-04T03:57:22.706Z,59.18
2018-08-04T03:58:22.738Z,60.31
2018-08-04T03:59:22.683Z,59.81
2018-08-04T04:00:22.672Z,60.11
2018-08-04T04:01:22.671Z,59.81
2018-08-04T04:02:22.649Z,59.91
2018-08-04T04:03:22.641Z,59.50
2018-08-04T04:04:22.661Z,59.91
2018-08-04T04:05:22.615Z,60.31
2018-08-04T04:06:22.606Z,59.81
2018-08-04T04:07:22.595Z,60.41
2018-08-04T04:08:22.581Z,60.31
2018-08-04T04:09:22.573Z,60.33
2018-08-04T04:10:22.590Z,60.51
2018-08-04T04:11:22.555Z,59.23
2018-08-04T04:12:22.535Z,60.11
2018-08-04T04:13:22.527Z,60.51
2018-08-04T04:14:22.515Z,59.70
2018-08-04T04:15:22.501Z,60.53
2018-08-04T04:16:22.521Z,59.74
2018-08-04T04:17:22.479Z,59.61
2018-08-04T04:18:22.463Z,60.53
2018-08-04T04:19:22.454Z,59.94
2018-08-04T04:20:22.443Z,59.50
2018-08-04T04:21:22.429Z,59.41
2018-08-04T04:22:22.445Z,60.24
2018-08-04T04:23:22.413Z,60.11
2018-08-04T04:24:22.424Z,59.70
2018-08-04T04:25:22.383Z,60.11
2018-08-04T04:26:22.370Z,59.91
2018-08-04T04:27:22.369Z,59.81
2018-08-04T04:28:22.383Z,59.81
2018-08-04T04:29:22.341Z,59.70
2018-08-04T04:30:22.333Z,59.18
2018-08-04T04:31:22.313Z,59.11
2018-08-04T04:32:22.305Z,59.50
2018-08-04T04:33:22.299Z,59.28
2018-08-04T04:34:22.319Z,59.58
2018-08-04T04:35:22.275Z,59.48
2018-08-04T04:36:22.265Z,59.18
2018-08-04T04:37:22.246Z,59.28
2018-08-04T04:38:22.244Z,58.48
2018-08-04T04:39:22.222Z,59.58
2018-08-04T04:40:22.246Z,58.87
2018-08-04T04:41:22.207Z,58.78
2018-08-04T04:42:22.191Z,58.58
2018-08-04T04:43:22.182Z,58.68
2018-08-04T04:44:22.172Z,58.58
2018-08-04T04:45:22.158Z,58.65
2018-08-04T04:46:22.183Z,58.65
2018-08-04T04:47:22.133Z,58.45
2018-08-04T04:48:22.133Z,58.55
2018-08-04T04:49:22.116Z,58.15
2018-08-04T04:50:22.101Z,57.65
2018-08-04T04:51:22.091Z,58.05
2018-08-04T04:52:22.108Z,58.05
2018-08-04T04:53:22.068Z,58.15
2018-08-04T04:54:22.057Z,58.15
2018-08-04T04:55:22.101Z,57.85
2018-08-04T04:56:22.065Z,58.15
2018-08-04T04:57:22.029Z,58.15
2018-08-04T04:58:22.007Z,57.75
2018-08-04T04:59:22.004Z,57.92
2018-08-04T05:00:21.992Z,57.65
2018-08-04T05:01:21.972Z,57.85
2018-08-04T05:02:22.006Z,57.92
2018-08-04T05:03:21.950Z,57.92
2018-08-04T05:04:21.946Z,57.85
2018-08-04T05:05:21.929Z,57.95
2018-08-04T05:06:21.923Z,57.82
2018-08-04T05:07:21.914Z,57.95
2018-08-04T05:08:21.929Z,57.62
2018-08-04T05:09:21.893Z,58.02
2018-08-04T05:10:21.888Z,58.12
2018-08-04T05:11:21.860Z,57.62
2018-08-04T05:12:21.858Z,59.02
2018-08-04T05:13:21.894Z,57.92
2018-08-04T05:14:21.829Z,57.72
2018-08-04T05:15:21.823Z,58.32
2018-08-04T05:16:21.803Z,57.82
2018-08-04T05:17:21.800Z,57.82
2018-08-04T05:18:21.788Z,57.42
2018-08-04T05:19:21.803Z,57.22
2018-08-04T05:20:21.761Z,56.99
2018-08-04T05:21:21.755Z,57.19
2018-08-04T05:22:21.743Z,57.19
2018-08-04T05:23:21.729Z,56.99
2018-08-04T05:24:21.726Z,56.29
2018-08-04T05:25:21.736Z,56.99
2018-08-04T05:26:21.696Z,57.29
2018-08-04T05:27:21.682Z,57.09
2018-08-04T05:28:21.670Z,56.59
2018-08-04T05:29:21.664Z,56.89
2018-08-04T05:30:21.642Z,56.67
2018-08-04T05:31:21.670Z,56.46
2018-08-04T05:32:21.668Z,56.46
2018-08-04T05:33:21.609Z,55.89
2018-08-04T05:34:21.605Z,55.97
2018-08-04T05:35:21.586Z,56.37
2018-08-04T05:36:21.574Z,56.57
2018-08-04T05:37:21.609Z,55.97
2018-08-04T05:38:21.550Z,55.87
2018-08-04T05:39:21.546Z,55.97
2018-08-04T05:40:21.536Z,56.46
2018-08-04T05:41:21.516Z,56.04
2018-08-04T05:42:21.513Z,55.94
2018-08-04T05:43:21.569Z,56.54
2018-08-04T05:44:21.486Z,55.64
2018-08-04T05:45:21.480Z,55.74
2018-08-04T05:46:21.468Z,56.11
2018-08-04T05:47:21.446Z,55.62
2018-08-04T05:48:21.440Z,55.81
2018-08-04T05:49:21.606Z,55.71
2018-08-04T05:50:21.411Z,55.81
2018-08-04T05:51:21.456Z,55.58
2018-08-04T05:52:21.392Z,56.09
2018-08-04T05:53:21.384Z,55.81
2018-08-04T05:54:21.407Z,56.18
2018-08-04T05:55:21.385Z,55.58
2018-08-04T05:56:21.347Z,54.52
2018-08-04T05:57:21.390Z,56.09
2018-08-04T05:58:21.353Z,55.69
2018-08-04T05:59:21.346Z,55.58
2018-08-04T06:00:21.301Z,54.99
2018-08-04T06:01:21.390Z,55.09
2018-08-04T06:02:21.281Z,55.58
2018-08-04T06:03:21.329Z,55.19
2018-08-04T06:04:21.251Z,55.69
2018-08-04T06:05:21.279Z,54.59
2018-08-04T06:06:21.276Z,54.09
2018-08-04T06:07:21.222Z,54.86
2018-08-04T06:08:21.276Z,55.06
2018-08-04T06:09:21.197Z,54.16
2018-08-04T06:10:21.255Z,54.16
2018-08-04T06:11:21.209Z,54.66
2018-08-04T06:12:21.165Z,55.06
2018-08-04T06:13:21.153Z,53.96
2018-08-04T06:14:21.143Z,53.54
2018-08-04T06:15:21.176Z,53.56
2018-08-04T06:16:21.116Z,54.16
2018-08-04T06:17:21.155Z,55.26
2018-08-04T06:18:21.094Z,54.94
2018-08-04T06:19:22.073Z,53.24
2018-08-04T06:20:21.230Z,53.84
2018-08-04T06:21:21.107Z,54.44
2018-08-04T06:22:21.233Z,54.94
2018-08-04T06:23:21.063Z,53.14
2018-08-04T06:24:21.025Z,54.83
2018-08-04T06:25:21.271Z,55.11
2018-08-04T06:26:21.010Z,53.81
2018-08-04T06:27:21.037Z,54.01
2018-08-04T06:28:21.058Z,54.11
2018-08-04T06:29:20.969Z,53.89
2018-08-04T06:30:21.025Z,53.49
2018-08-04T06:31:21.033Z,52.99
2018-08-04T06:32:20.941Z,53.59
2018-08-04T06:33:20.960Z,52.42
2018-08-04T06:34:20.917Z,52.89
2018-08-04T06:35:20.904Z,52.89
2018-08-04T06:36:20.892Z,53.86
2018-08-04T06:37:20.884Z,53.36
2018-08-04T06:38:20.958Z,53.76
2018-08-04T06:39:20.893Z,53.66
2018-08-04T06:40:20.908Z,53.27
2018-08-04T06:41:20.838Z,53.44
2018-08-04T06:42:20.856Z,52.64
2018-08-04T06:43:20.816Z,52.34
2018-08-04T06:44:20.797Z,52.64
2018-08-04T06:45:20.811Z,52.62
2018-08-04T06:46:20.780Z,51.95
2018-08-04T06:47:20.772Z,51.35
2018-08-04T06:48:20.755Z,51.62
2018-08-04T06:49:20.747Z,53.51
2018-08-04T06:50:20.760Z,52.72
2018-08-04T06:51:20.724Z,51.32
2018-08-04T06:52:20.714Z,51.12
2018-08-04T06:53:20.696Z,50.90
2018-08-04T06:54:20.693Z,51.30
2018-08-04T06:55:20.675Z,50.80
2018-08-04T06:56:20.698Z,51.07
2018-08-04T06:57:20.657Z,50.88
2018-08-04T06:58:20.688Z,50.18
2018-08-04T06:59:20.636Z,49.76
2018-08-04T07:00:20.616Z,49.26
2018-08-04T07:01:20.611Z,49.26
2018-08-04T07:02:20.636Z,49.46
2018-08-04T07:03:20.589Z,49.24
2018-08-04T07:04:20.580Z,48.84
2018-08-04T07:05:20.559Z,48.42
2018-08-04T07:06:20.552Z,48.22
2018-08-04T07:07:20.544Z,49.21
2018-08-04T07:08:20.554Z,49.19
2018-08-04T07:09:20.526Z,47.41
2018-08-04T07:10:20.510Z,48.38
2018-08-04T07:11:20.496Z,48.10
2018-08-04T07:12:20.487Z,48.38
2018-08-04T07:13:20.506Z,47.09
2018-08-04T07:14:20.469Z,47.49
2018-08-04T07:15:20.454Z,47.58
2018-08-04T07:16:20.437Z,47.26
2018-08-04T07:17:20.429Z,46.74
2018-08-04T07:18:20.453Z,47.53
2018-08-04T07:19:20.407Z,45.85
2018-08-04T07:20:20.399Z,46.03
2018-08-04T07:21:20.384Z,45.81
2018-08-04T07:22:20.371Z,44.92
2018-08-04T07:23:20.368Z,44.80
2018-08-04T07:24:20.385Z,43.91
2018-08-04T07:25:20.344Z,44.87
2018-08-04T07:26:20.335Z,45.35
2018-08-04T07:27:20.316Z,43.47
2018-08-04T07:28:20.314Z,43.87
2018-08-04T07:29:20.296Z,43.96
2018-08-04T07:30:20.317Z,42.66
2018-08-04T07:31:20.276Z,42.36
2018-08-04T07:32:20.271Z,42.66
2018-08-04T07:33:20.259Z,42.64
2018-08-04T07:34:20.298Z,42.83
2018-08-04T07:35:20.236Z,42.44
2018-08-04T07:36:20.254Z,42.05
2018-08-04T07:37:20.212Z,42.42
2018-08-04T07:38:20.199Z,41.73
2018-08-04T07:39:20.194Z,42.02
2018-08-04T07:40:20.207Z,42.07
2018-08-04T07:41:20.167Z,42.74
2018-08-04T07:42:20.183Z,42.76
2018-08-04T07:43:20.145Z,42.26
2018-08-04T07:44:20.141Z,42.96
2018-08-04T07:45:20.120Z,43.43
2018-08-04T07:46:20.114Z,43.74
2018-08-04T07:47:20.130Z,42.46
2018-08-04T07:48:20.089Z,44.34
2018-08-04T07:49:20.081Z,43.65
2018-08-04T07:50:20.066Z,42.96
2018-08-04T07:51:20.065Z,42.68
2018-08-04T07:52:20.045Z,43.17
2018-08-04T07:53:20.074Z,44.56
2018-08-04T07:54:20.029Z,44.16
2018-08-04T07:55:20.016Z,43.96
2018-08-04T07:56:20.009Z,44.24
2018-08-04T07:57:19.990Z,43.15
2018-08-04T07:58:19.982Z,43.73
2018-08-04T07:59:20.063Z,42.24
2018-08-04T08:00:19.961Z,42.22
2018-08-04T08:01:19.951Z,41.31
2018-08-04T08:02:19.934Z,42.50
2018-08-04T08:03:19.926Z,41.49
2018-08-04T08:04:19.917Z,41.08
2018-08-04T08:05:19.939Z,39.70
2018-08-04T08:06:19.948Z,41.25
2018-08-04T08:07:19.887Z,40.27
2018-08-04T08:08:19.880Z,40.05
2018-08-04T08:09:19.866Z,38.95
2018-08-04T08:10:19.924Z,38.46
2018-08-04T08:11:19.919Z,37.85
2018-08-04T08:12:19.835Z,40.21
2018-08-04T08:13:19.823Z,37.63
2018-08-04T08:14:19.810Z,37.93
2018-08-04T08:15:19.807Z,37.93
2018-08-04T08:16:19.799Z,37.42
2018-08-04T08:17:19.810Z,37.82
2018-08-04T08:18:19.775Z,37.23
2018-08-04T08:19:19.803Z,36.72
2018-08-04T08:20:19.746Z,37.58
2018-08-04T08:21:19.739Z,36.49
2018-08-04T08:22:19.729Z,36.39
2018-08-04T08:23:19.825Z,36.39
2018-08-04T08:24:19.704Z,36.18
2018-08-04T08:25:19.704Z,35.58
2018-08-04T08:26:19.682Z,35.08
2018-08-04T08:27:19.681Z,36.35
2018-08-04T08:28:19.670Z,35.25
2018-08-04T08:29:19.683Z,35.16
2018-08-04T08:30:19.651Z,35.65
2018-08-04T08:31:19.697Z,34.77
2018-08-04T08:32:19.622Z,34.77
2018-08-04T08:33:19.621Z,34.94
2018-08-04T08:34:19.603Z,34.75
2018-08-04T08:35:19.626Z,35.73
2018-08-04T08:36:19.593Z,34.26
2018-08-04T08:37:19.579Z,34.14
2018-08-04T08:38:19.568Z,33.75
2018-08-04T08:39:19.561Z,34.14
2018-08-04T08:40:19.596Z,34.42
2018-08-04T08:41:19.567Z,34.21
2018-08-04T08:42:19.533Z,34.70
2018-08-04T08:43:19.514Z,34.29
2018-08-04T08:44:19.503Z,34.09
2018-08-04T08:45:19.502Z,34.08
2018-08-04T08:46:19.484Z,34.28
2018-08-04T08:47:19.585Z,33.77
2018-08-04T08:48:19.474Z,33.38
2018-08-04T08:49:19.455Z,32.50
2018-08-04T08:50:19.458Z,33.28
2018-08-04T08:51:19.435Z,33.18
2018-08-04T08:52:19.431Z,32.89
2018-08-04T08:53:19.606Z,33.07
2018-08-04T08:54:19.407Z,32.37
2018-08-04T08:55:19.401Z,31.48
2018-08-04T08:56:19.392Z,31.85
2018-08-04T08:57:19.387Z,31.16
2018-08-04T08:58:19.368Z,31.25
2018-08-04T08:59:19.394Z,31.82
2018-08-04T09:00:19.359Z,31.73
2018-08-04T09:01:19.389Z,31.14
2018-08-04T09:02:19.338Z,29.97
2018-08-04T09:03:19.326Z,30.36
2018-08-04T09:04:19.346Z,30.07
2018-08-04T09:05:19.311Z,30.05
2018-08-04T09:06:19.298Z,30.44
2018-08-04T09:07:19.286Z,30.44
2018-08-04T09:08:19.280Z,30.14
2018-08-04T09:09:19.269Z,29.85
2018-08-04T09:10:19.291Z,29.64
2018-08-04T09:11:19.247Z,30.12
2018-08-04T09:12:19.246Z,29.44
2018-08-04T09:13:19.228Z,29.52
2018-08-04T09:14:19.227Z,28.65
2018-08-04T09:15:19.209Z,28.45
2018-08-04T09:16:19.225Z,28.64
2018-08-04T09:17:19.200Z,28.15
2018-08-04T09:18:19.185Z,28.93
2018-08-04T09:19:19.181Z,28.64
2018-08-04T09:20:19.167Z,28.23
2018-08-04T09:21:19.192Z,27.75
2018-08-04T09:22:19.149Z,27.07
2018-08-04T09:23:19.140Z,27.73
2018-08-04T09:24:19.136Z,27.72
2018-08-04T09:25:19.122Z,25.78
2018-08-04T09:26:19.116Z,26.37
2018-08-04T09:27:19.129Z,26.27
2018-08-04T09:28:19.092Z,26.37
2018-08-04T09:29:19.092Z,25.68
2018-08-04T09:30:19.082Z,27.14
2018-08-04T09:31:19.070Z,27.13
2018-08-04T09:32:19.100Z,26.35
2018-08-04T09:33:19.051Z,25.38
2018-08-04T09:34:19.042Z,25.77
2018-08-04T09:35:19.037Z,27.62
2018-08-04T09:36:19.026Z,26.54
2018-08-04T09:37:19.025Z,25.58
2018-08-04T09:38:19.036Z,26.53
2018-08-04T09:39:19.007Z,26.82
2018-08-04T09:40:18.996Z,26.72
2018-08-04T09:41:18.973Z,26.12
2018-08-04T09:42:18.977Z,25.35
2018-08-04T09:43:18.960Z,25.05
2018-08-04T09:44:18.995Z,25.61
2018-08-04T09:45:18.948Z,25.32
2018-08-04T09:46:18.942Z,24.93
2018-08-04T09:47:18.928Z,24.92
2018-08-04T09:48:18.918Z,25.50
2018-08-04T09:49:18.919Z,24.72
2018-08-04T09:50:18.932Z,24.52
2018-08-04T09:51:18.907Z,24.81
2018-08-04T09:52:18.894Z,24.80
2018-08-04T09:53:18.878Z,23.25
2018-08-04T09:54:18.881Z,24.14
2018-08-04T09:55:18.901Z,24.04
2018-08-04T09:56:18.861Z,24.91
2018-08-04T09:57:18.856Z,23.35
2018-08-04T09:58:18.844Z,23.65
2018-08-04T09:59:18.833Z,23.74
2018-08-04T10:00:18.825Z,23.35
2018-08-04T10:01:18.853Z,23.65
2018-08-04T10:02:18.807Z,24.52
2018-08-04T10:03:18.807Z,24.61
2018-08-04T10:04:18.791Z,24.32
2018-08-04T10:05:18.877Z,23.83
2018-08-04T10:06:18.781Z,23.35
2018-08-04T10:07:18.791Z,23.72
2018-08-04T10:08:18.760Z,23.44
2018-08-04T10:09:18.759Z,22.94
2018-08-04T10:10:18.747Z,23.04
2018-08-04T10:11:18.789Z,24.48
2018-08-04T10:12:18.774Z,23.61
2018-08-04T10:13:18.734Z,23.41
2018-08-04T10:14:18.719Z,24.57
2018-08-04T10:15:18.712Z,23.98
2018-08-04T10:16:18.706Z,23.40
2018-08-04T10:17:18.701Z,22.44
2018-08-04T10:18:18.727Z,23.69
2018-08-04T10:19:18.683Z,23.98
2018-08-04T10:20:18.763Z,22.25
2018-08-04T10:21:18.667Z,21.77
2018-08-04T10:22:18.662Z,23.79
2018-08-04T10:23:18.656Z,23.31
2018-08-04T10:24:18.672Z,23.50
2018-08-04T10:25:18.639Z,23.68
2018-08-04T10:26:18.629Z,22.62
2018-08-04T10:27:18.620Z,23.39
2018-08-04T10:28:18.615Z,21.75
2018-08-04T10:29:18.638Z,22.90
2018-08-04T10:30:18.598Z,22.03
2018-08-04T10:31:18.585Z,23.47
2018-08-04T10:32:18.652Z,22.69
2018-08-04T10:33:18.568Z,21.84
2018-08-04T10:34:18.549Z,22.89
2018-08-04T10:35:18.580Z,22.02
2018-08-04T10:36:18.540Z,22.02
2018-08-04T10:37:18.528Z,22.02
2018-08-04T10:38:18.522Z,21.72
2018-08-04T10:39:18.506Z,21.72
2018-08-04T10:40:18.498Z,22.41
2018-08-04T10:41:18.530Z,21.17
2018-08-04T10:42:18.485Z,21.75
2018-08-04T10:43:18.480Z,21.65
2018-08-04T10:44:18.472Z,22.31
2018-08-04T10:45:18.454Z,21.83
2018-08-04T10:46:18.455Z,22.22
2018-08-04T10:47:18.468Z,22.22
2018-08-04T10:48:18.430Z,20.95
2018-08-04T10:49:18.424Z,21.92
2018-08-04T10:50:18.413Z,22.01
2018-08-04T10:51:18.407Z,21.71
2018-08-04T10:52:18.400Z,21.82
2018-08-04T10:53:18.411Z,22.00
2018-08-04T10:54:18.382Z,21.71
2018-08-04T10:55:18.367Z,21.33
2018-08-04T10:56:18.362Z,21.72
2018-08-04T10:57:18.354Z,22.30
2018-08-04T10:58:18.376Z,22.69
2018-08-04T10:59:18.334Z,20.65
2018-08-04T11:00:18.340Z,21.71
2018-08-04T11:01:18.313Z,22.77
2018-08-04T11:02:18.305Z,20.08
2018-08-04T11:03:18.300Z,20.64
2018-08-04T11:04:18.323Z,21.03
2018-08-04T11:05:18.277Z,21.03
2018-08-04T11:06:18.274Z,21.51
2018-08-04T11:07:18.267Z,20.84
2018-08-04T11:08:18.253Z,21.99
2018-08-04T11:09:18.287Z,21.02
2018-08-04T11:10:18.241Z,20.54
2018-08-04T11:11:18.230Z,20.72
2018-08-04T11:12:18.225Z,21.87
2018-08-04T11:13:18.216Z,19.95
2018-08-04T11:14:18.204Z,20.15
2018-08-04T11:15:18.239Z,21.11
2018-08-04T11:16:18.190Z,21.02
2018-08-04T11:17:18.187Z,20.14
2018-08-04T11:18:18.173Z,20.05
2018-08-04T11:19:18.169Z,19.76
2018-08-04T11:20:18.150Z,21.11
2018-08-04T11:21:18.181Z,20.81
2018-08-04T11:22:18.134Z,19.56
2018-08-04T11:23:18.133Z,20.23
2018-08-04T11:24:18.146Z,20.61
2018-08-04T11:25:18.107Z,20.04
2018-08-04T11:26:18.108Z,20.03
2018-08-04T11:27:18.126Z,20.32
2018-08-04T11:28:18.084Z,19.26
2018-08-04T11:29:18.087Z,19.93
2018-08-04T11:30:18.068Z,19.93
2018-08-04T11:31:18.063Z,21.66
2018-08-04T11:32:18.062Z,19.84
2018-08-04T11:33:18.077Z,19.93
2018-08-04T11:34:18.039Z,20.89
2018-08-04T11:35:18.034Z,19.65
2018-08-04T11:36:18.024Z,20.98
2018-08-04T11:37:18.021Z,20.02
2018-08-04T11:38:18.042Z,20.40
2018-08-04T11:39:18.002Z,20.12
2018-08-04T11:40:17.994Z,19.92
2018-08-04T11:41:17.985Z,19.62
2018-08-04T11:42:17.977Z,19.92
2018-08-04T11:43:17.968Z,18.76
2018-08-04T11:44:17.993Z,19.06
2018-08-04T11:45:17.956Z,20.40
2018-08-04T11:46:17.954Z,21.26
2018-08-04T11:47:17.945Z,20.69
2018-08-04T11:48:17.929Z,20.49
2018-08-04T11:49:17.922Z,19.92
2018-08-04T11:50:17.941Z,18.66
2018-08-04T11:51:17.899Z,19.42
2018-08-04T11:52:17.890Z,20.29
2018-08-04T11:53:17.889Z,19.52
2018-08-04T11:54:17.876Z,18.76
2018-08-04T11:55:17.867Z,20.09
2018-08-04T11:56:17.896Z,19.71
2018-08-04T11:57:17.846Z,20.29
2018-08-04T11:58:17.890Z,19.43
2018-08-04T11:59:17.834Z,19.15
2018-08-04T12:00:17.823Z,18.96
2018-08-04T12:01:17.817Z,18.96
2018-08-04T12:02:17.836Z,19.54
2018-08-04T12:03:17.797Z,18.96
2018-08-04T12:04:17.792Z,19.36
2018-08-04T12:05:17.784Z,20.98
2018-08-04T12:06:17.768Z,19.74
2018-08-04T12:07:17.759Z,20.41
2018-08-04T12:08:17.795Z,19.74
2018-08-04T12:09:17.743Z,19.45
2018-08-04T12:10:17.742Z,19.64
2018-08-04T12:11:17.733Z,18.87
2018-08-04T12:12:17.717Z,20.12
2018-08-04T12:13:17.721Z,18.78
2018-08-04T12:14:17.731Z,18.29
2018-08-04T12:15:17.697Z,18.87
2018-08-04T12:16:17.694Z,18.67
2018-08-04T12:17:17.679Z,20.20
2018-08-04T12:18:17.673Z,19.72
2018-08-04T12:19:17.721Z,20.38
2018-08-04T12:20:17.658Z,20.87
2018-08-04T12:21:17.652Z,18.57
2018-08-04T12:22:17.641Z,20.68
2018-08-04T12:23:17.635Z,18.86
2018-08-04T12:24:17.617Z,21.45
2018-08-04T12:25:17.643Z,19.53
2018-08-04T12:26:17.599Z,20.20
2018-08-04T12:27:17.602Z,18.57
2018-08-04T12:28:17.592Z,20.78
2018-08-04T12:29:17.575Z,18.66
2018-08-04T12:30:17.608Z,18.76
2018-08-04T12:31:17.561Z,19.13
2018-08-04T12:32:17.550Z,19.43
2018-08-04T12:33:17.549Z,19.62
2018-08-04T12:34:17.540Z,19.05
2018-08-04T12:35:17.534Z,19.72
2018-08-04T12:36:17.550Z,20.01
2018-08-04T12:37:17.509Z,18.76
2018-08-04T12:38:17.511Z,19.72
2018-08-04T12:39:17.491Z,19.05
2018-08-04T12:40:17.494Z,18.76
2018-08-04T12:41:17.482Z,18.57
2018-08-04T12:42:17.507Z,18.86
2018-08-04T12:43:17.475Z,19.81
2018-08-04T12:44:17.460Z,20.95
2018-08-04T12:45:17.452Z,18.65
2018-08-04T12:46:17.447Z,18.17
2018-08-04T12:47:17.430Z,18.08
2018-08-04T12:48:17.459Z,21.24
2018-08-04T12:49:17.411Z,18.47
2018-08-04T12:50:17.405Z,18.47
2018-08-04T12:51:17.393Z,18.46
2018-08-04T12:52:17.390Z,17.88